createdAt,value
2023-03-06T00:01:32.010Z,0.70
2023-03-06T00:04:01.758Z,1.08
2023-03-06T00:06:31.772Z,0.85
2023-03-06T00:09:01.454Z,0.90
2023-03-06T00:11:31.081Z,0.90
2023-03-06T00:14:00.952Z,1.13
2023-03-06T00:16:30.610Z,1.08
2023-03-06T00:19:00.241Z,1.05
2023-03-06T00:21:29.997Z,1.13
2023-03-06T00:23:59.676Z,1.02
2023-03-06T00:26:29.353Z,1.00
2023-03-06T00:28:59.400Z,1.00
2023-03-06T00:31:29.161Z,1.17
2023-03-06T00:33:58.762Z,1.00
2023-03-06T00:36:28.500Z,1.15
2023-03-06T00:38:58.129Z,1.10
2023-03-06T00:41:28.698Z,1.10
2023-03-06T00:43:58.394Z,0.98
2023-03-06T00:46:28.100Z,1.00
2023-03-06T00:48:57.836Z,1.08
2023-03-06T00:51:27.501Z,1.02
2023-03-06T00:53:57.127Z,1.15
2023-03-06T00:56:27.289Z,1.20
2023-03-06T00:58:56.920Z,1.00
2023-03-06T01:01:26.549Z,1.20
2023-03-06T01:03:56.415Z,1.30
2023-03-06T01:06:26.484Z,1.48
2023-03-06T01:08:56.136Z,1.00
2023-03-06T01:11:26.109Z,1.25
2023-03-06T01:13:56.031Z,1.15
2023-03-06T01:16:26.105Z,1.40
2023-03-06T01:18:55.754Z,1.40
2023-03-06T01:21:25.825Z,1.27
2023-03-06T01:23:55.453Z,1.35
2023-03-06T01:26:25.181Z,1.30
2023-03-06T01:28:54.750Z,1.45
2023-03-06T01:31:24.421Z,1.30
2023-03-06T01:33:54.483Z,1.52
2023-03-06T01:36:24.228Z,1.40
2023-03-06T01:38:53.819Z,1.15
2023-03-06T01:41:23.527Z,1.55
2023-03-06T01:43:53.543Z,1.48
2023-03-06T01:46:33.763Z,1.42
2023-03-06T01:49:27.338Z,1.35
2023-03-06T01:52:05.610Z,1.13
2023-03-06T01:54:57.444Z,1.70
2023-03-06T01:57:40.597Z,1.10
2023-03-06T02:00:15.819Z,1.42
2023-03-06T02:02:51.947Z,1.40
2023-03-06T02:05:22.190Z,1.40
2023-03-06T02:07:52.949Z,1.27
2023-03-06T02:10:23.525Z,1.25
2023-03-06T02:12:54.101Z,1.30
2023-03-06T02:15:27.889Z,1.00
2023-03-06T02:17:57.974Z,0.70
2023-03-06T02:20:41.356Z,1.20
2023-03-06T02:23:33.963Z,0.82
2023-03-06T02:26:04.975Z,1.17
2023-03-06T02:28:34.549Z,1.13
2023-03-06T02:31:04.394Z,0.98
2023-03-06T02:33:34.259Z,0.90
2023-03-06T02:36:08.927Z,1.08
2023-03-06T02:38:52.419Z,1.05
2023-03-06T02:41:22.076Z,0.90
2023-03-06T02:43:54.092Z,1.17
2023-03-06T02:46:23.713Z,1.40
2023-03-06T02:48:53.335Z,1.40
2023-03-06T02:51:23.196Z,1.50
2023-03-06T02:53:52.976Z,1.40
2023-03-06T02:56:22.978Z,1.45
2023-03-06T02:58:53.620Z,1.33
2023-03-06T03:01:23.777Z,1.60
2023-03-06T03:03:53.466Z,1.73
2023-03-06T03:06:23.088Z,1.65
2023-03-06T03:08:52.714Z,1.70
2023-03-06T03:11:22.345Z,1.50
2023-03-06T03:13:51.931Z,1.70
2023-03-06T03:16:21.746Z,1.58
2023-03-06T03:18:52.590Z,1.80
2023-03-06T03:21:22.309Z,1.45
2023-03-06T03:23:51.957Z,1.40
2023-03-06T03:26:23.630Z,1.98
2023-03-06T03:28:53.240Z,1.40
2023-03-06T03:31:22.871Z,1.45
2023-03-06T03:33:52.634Z,1.83
2023-03-06T03:36:22.275Z,1.20
2023-03-06T03:38:51.900Z,1.77
2023-03-06T03:41:21.650Z,1.38
2023-03-06T03:43:51.273Z,1.50
2023-03-06T03:46:22.123Z,1.73
2023-03-06T03:48:51.699Z,1.92
2023-03-06T03:51:22.113Z,1.60
2023-03-06T03:53:51.994Z,1.60
2023-03-06T03:56:21.935Z,1.55
2023-03-06T03:58:51.492Z,1.40
2023-03-06T04:01:21.395Z,1.55
2023-03-06T04:03:50.958Z,1.23
2023-03-06T04:06:21.066Z,1.73
2023-03-06T04:08:50.677Z,1.60
2023-03-06T04:11:20.323Z,1.20
2023-03-06T04:13:49.938Z,1.60
2023-03-06T04:16:19.729Z,1.33
2023-03-06T04:18:49.385Z,1.02
2023-03-06T04:21:19.026Z,1.40
2023-03-06T04:23:48.658Z,1.20
2023-03-06T04:26:18.296Z,1.23
2023-03-06T04:28:47.898Z,1.35
2023-03-06T04:31:17.812Z,1.13
2023-03-06T04:33:47.340Z,1.30
2023-03-06T04:36:35.623Z,1.02
2023-03-06T04:39:05.527Z,1.48
2023-03-06T04:41:35.246Z,1.13
2023-03-06T04:44:05.110Z,1.15
2023-03-06T04:46:35.038Z,1.13
2023-03-06T04:49:05.756Z,1.00
2023-03-06T04:51:38.312Z,1.42
2023-03-06T04:54:08.089Z,1.35
2023-03-06T04:56:37.988Z,1.10
2023-03-06T04:59:07.592Z,0.85
2023-03-06T05:01:37.556Z,1.10
2023-03-06T05:04:07.438Z,0.95
2023-03-06T05:06:37.086Z,0.80
2023-03-06T05:09:06.715Z,1.10
2023-03-06T05:11:36.362Z,0.90
2023-03-06T05:14:06.027Z,0.90
2023-03-06T05:16:35.697Z,1.10
2023-03-06T05:19:05.378Z,0.93
2023-03-06T05:21:35.112Z,0.98
2023-03-06T05:24:04.664Z,0.80
2023-03-06T05:26:35.451Z,0.80
2023-03-06T05:29:05.001Z,0.90
2023-03-06T05:31:34.759Z,0.88
2023-03-06T05:34:04.381Z,0.65
2023-03-06T05:36:34.586Z,1.00
2023-03-06T05:39:04.151Z,0.85
2023-03-06T05:41:33.853Z,0.80
2023-03-06T05:44:03.876Z,0.77
2023-03-06T05:46:33.726Z,1.08
2023-03-06T05:49:03.355Z,1.00
2023-03-06T05:51:33.373Z,0.90
2023-03-06T05:54:03.013Z,0.90
2023-03-06T05:56:32.594Z,0.88
2023-03-06T05:59:02.433Z,0.85
2023-03-06T06:01:32.053Z,0.88
2023-03-06T06:04:01.664Z,0.90
2023-03-06T06:06:31.304Z,1.02
2023-03-06T06:09:00.927Z,1.00
2023-03-06T06:11:30.479Z,0.70
2023-03-06T06:14:00.244Z,0.50
2023-03-06T06:16:31.186Z,0.60
2023-03-06T06:19:00.824Z,0.88
2023-03-06T06:21:30.484Z,0.40
2023-03-06T06:24:00.143Z,0.70
2023-03-06T06:26:29.848Z,0.85
2023-03-06T06:29:00.357Z,0.95
2023-03-06T06:31:30.186Z,0.68
2023-03-06T06:33:59.976Z,0.40
2023-03-06T06:36:29.634Z,0.22
2023-03-06T06:38:59.392Z,0.60
2023-03-06T06:44:20.651Z,0.60
2023-03-06T06:49:41.236Z,0.73
2023-03-06T06:52:11.004Z,0.70
2023-03-06T06:54:40.694Z,0.70
2023-03-06T06:57:11.819Z,1.00
2023-03-06T06:59:41.485Z,0.80
2023-03-06T07:02:14.634Z,0.80
2023-03-06T07:07:32.700Z,0.80
2023-03-06T07:10:02.282Z,0.80
2023-03-06T07:12:34.311Z,1.05
2023-03-06T07:15:04.039Z,1.05
2023-03-06T07:17:33.807Z,0.85
2023-03-06T07:20:03.397Z,1.20
2023-03-06T07:22:41.562Z,0.85
2023-03-06T07:25:20.229Z,0.80
2023-03-06T07:27:53.709Z,1.00
2023-03-06T07:30:27.463Z,1.00
2023-03-06T07:32:58.710Z,0.90
2023-03-06T07:35:28.499Z,0.75
2023-03-06T07:37:58.188Z,0.80
2023-03-06T07:40:27.976Z,0.75
2023-03-06T07:43:16.839Z,0.80
2023-03-06T07:45:48.711Z,1.38
2023-03-06T07:48:18.332Z,0.90
2023-03-06T07:50:47.901Z,0.85
2023-03-06T07:53:17.506Z,0.70
2023-03-06T07:55:47.166Z,0.90
2023-03-06T07:58:16.911Z,1.00
2023-03-06T08:00:46.546Z,0.73
2023-03-06T08:03:17.052Z,0.75
2023-03-06T08:05:47.047Z,0.70
2023-03-06T08:08:16.820Z,0.68
2023-03-06T08:10:50.709Z,1.00
2023-03-06T08:13:20.446Z,0.77
2023-03-06T08:15:51.049Z,0.95
2023-03-06T08:18:20.623Z,0.88
2023-03-06T08:20:50.202Z,0.88
2023-03-06T08:23:19.791Z,0.93
2023-03-06T08:25:56.911Z,1.00
2023-03-06T08:28:26.950Z,1.08
2023-03-06T08:30:57.749Z,1.73
2023-03-06T08:33:27.401Z,0.93
2023-03-06T08:35:57.033Z,1.00
2023-03-06T08:38:26.688Z,1.02
2023-03-06T08:40:56.261Z,0.90
2023-03-06T08:43:25.952Z,0.90
2023-03-06T08:46:00.250Z,1.05
2023-03-06T08:48:30.218Z,1.00
2023-03-06T08:50:59.991Z,0.93
2023-03-06T08:53:42.218Z,0.88
2023-03-06T08:56:25.065Z,0.80
2023-03-06T08:58:55.364Z,1.00
2023-03-06T09:01:28.055Z,0.85
2023-03-06T09:04:00.005Z,1.05
2023-03-06T09:06:33.818Z,0.75
2023-03-06T09:09:03.997Z,1.20
2023-03-06T09:11:34.221Z,0.70
2023-03-06T09:14:04.008Z,0.52
2023-03-06T09:16:34.216Z,0.70
2023-03-06T09:19:03.868Z,0.52
2023-03-06T09:21:33.564Z,0.73
2023-03-06T09:24:03.300Z,0.85
2023-03-06T09:26:44.970Z,0.50
2023-03-06T09:29:17.755Z,0.55
2023-03-06T09:31:47.968Z,0.50
2023-03-06T09:34:17.589Z,0.43
2023-03-06T09:36:56.411Z,0.50
2023-03-06T09:39:27.797Z,0.55
2023-03-06T09:42:01.437Z,0.70
2023-03-06T09:44:35.888Z,0.60
2023-03-06T09:47:11.793Z,0.90
2023-03-06T09:50:00.131Z,0.70
2023-03-06T09:52:40.118Z,0.60
2023-03-06T09:55:39.787Z,0.88
2023-03-06T09:58:20.206Z,0.80
2023-03-06T10:01:18.027Z,0.88
2023-03-06T10:04:11.728Z,0.90
2023-03-06T10:06:51.158Z,0.82
2023-03-06T10:09:55.392Z,0.90
2023-03-06T10:12:30.321Z,0.75
2023-03-06T10:15:17.132Z,1.30
2023-03-06T10:17:47.454Z,0.90
2023-03-06T10:20:23.086Z,0.82
2023-03-06T10:23:23.692Z,0.80
2023-03-06T10:26:05.350Z,1.00
2023-03-06T10:28:49.668Z,1.10
2023-03-06T10:31:28.164Z,0.80
2023-03-06T10:34:19.828Z,1.20
2023-03-06T10:36:49.455Z,1.40
2023-03-06T10:39:21.775Z,1.30
2023-03-06T10:41:52.598Z,1.05
2023-03-06T10:44:25.020Z,1.25
2023-03-06T10:46:56.143Z,1.10
2023-03-06T10:49:39.632Z,1.20
2023-03-06T10:54:51.182Z,1.13
2023-03-06T10:57:32.610Z,1.60
2023-03-06T11:00:08.189Z,1.10
2023-03-06T11:02:42.397Z,1.42
2023-03-06T11:05:22.721Z,1.25
2023-03-06T11:07:57.705Z,1.23
2023-03-06T11:10:28.222Z,1.52
2023-03-06T11:13:23.483Z,1.10
2023-03-06T11:16:00.973Z,1.17
2023-03-06T11:18:44.313Z,1.60
2023-03-06T11:21:32.502Z,1.30
2023-03-06T11:24:20.389Z,1.15
2023-03-06T11:27:02.113Z,1.40
2023-03-06T11:29:46.636Z,1.15
2023-03-06T11:32:34.375Z,1.45
2023-03-06T11:35:12.016Z,1.40
2023-03-06T11:37:48.511Z,1.48
2023-03-06T11:40:28.999Z,1.23
2023-03-06T11:43:19.931Z,1.70
2023-03-06T11:46:16.828Z,1.35
2023-03-06T11:48:56.390Z,1.30
2023-03-06T11:51:35.260Z,1.50
2023-03-06T11:54:05.370Z,1.42
2023-03-06T11:56:58.631Z,1.40
2023-03-06T11:59:28.312Z,1.45
2023-03-06T12:02:21.777Z,1.30
2023-03-06T12:05:13.015Z,1.40
2023-03-06T12:08:10.347Z,1.50
2023-03-06T12:11:02.188Z,1.20
2023-03-06T12:13:40.542Z,1.23
2023-03-06T12:16:25.891Z,0.82
2023-03-06T12:19:04.521Z,1.08
2023-03-06T12:21:34.219Z,0.90
2023-03-06T12:24:31.388Z,0.98
2023-03-06T12:29:42.129Z,0.90
2023-03-06T12:32:23.677Z,0.70
2023-03-06T12:35:14.052Z,0.80
2023-03-06T12:37:46.622Z,0.50
2023-03-06T12:40:34.584Z,0.95
2023-03-06T12:43:22.195Z,0.60
2023-03-06T12:46:00.461Z,0.70
2023-03-06T12:48:35.955Z,0.68
2023-03-06T12:51:09.743Z,0.77
2023-03-06T12:53:42.069Z,0.50
2023-03-06T12:56:15.817Z,0.47
2023-03-06T12:58:55.785Z,0.80
2023-03-06T13:01:39.445Z,0.90
2023-03-06T13:04:36.500Z,0.85
2023-03-06T13:07:29.339Z,0.43
2023-03-06T13:10:11.186Z,0.63
2023-03-06T13:12:51.345Z,0.60
2023-03-06T13:15:39.151Z,0.70
2023-03-06T13:18:26.804Z,0.50
2023-03-06T13:21:00.967Z,0.77
2023-03-06T13:23:36.975Z,0.60
2023-03-06T13:26:12.243Z,0.68
2023-03-06T13:28:52.006Z,0.47
2023-03-06T13:31:35.235Z,0.63
2023-03-06T13:34:25.044Z,0.85
2023-03-06T13:36:54.774Z,0.70
2023-03-06T13:39:24.418Z,0.70
2023-03-06T13:42:01.960Z,0.55
2023-03-06T13:44:32.322Z,0.65
2023-03-06T13:47:21.930Z,0.60
2023-03-06T13:49:51.682Z,0.65
2023-03-06T13:52:45.062Z,0.70
2023-03-06T13:55:55.966Z,0.70
2023-03-06T13:59:14.162Z,0.35
2023-03-06T14:01:58.920Z,0.55
2023-03-06T14:04:56.017Z,0.45
2023-03-06T14:07:33.061Z,0.40
2023-03-06T14:10:11.470Z,0.50
2023-03-06T14:12:53.035Z,0.47
2023-03-06T14:15:32.502Z,0.47
2023-03-06T14:18:09.283Z,0.40
2023-03-06T14:20:41.626Z,0.55
2023-03-06T14:23:39.576Z,0.50
2023-03-06T14:26:21.427Z,0.47
2023-03-06T14:29:07.102Z,0.70
2023-03-06T14:31:42.850Z,0.65
2023-03-06T14:34:24.307Z,0.50
2023-03-06T14:36:56.965Z,0.65
2023-03-06T14:39:35.245Z,0.85
2023-03-06T14:42:18.307Z,0.65
2023-03-06T14:45:01.812Z,0.55
2023-03-06T14:47:37.986Z,0.50
2023-03-06T14:50:34.543Z,0.65
2023-03-06T14:53:30.785Z,0.80
2023-03-06T14:56:05.076Z,0.55
2023-03-06T14:58:44.534Z,0.47
2023-03-06T15:01:16.136Z,0.60
2023-03-06T15:03:50.361Z,0.47
2023-03-06T15:06:44.151Z,0.50
2023-03-06T15:11:55.972Z,0.50
2023-03-06T15:14:50.593Z,0.43
2023-03-06T15:17:20.148Z,0.50
2023-03-06T15:19:58.746Z,0.45
2023-03-06T15:22:43.018Z,0.50
2023-03-06T15:25:29.435Z,0.70
2023-03-06T15:28:37.440Z,0.60
2023-03-06T15:31:17.780Z,0.60
2023-03-06T15:34:07.873Z,0.70
2023-03-06T15:36:43.806Z,0.50
2023-03-06T15:39:34.559Z,0.65
2023-03-06T15:42:15.923Z,0.55
2023-03-06T15:44:48.575Z,0.50
2023-03-06T15:47:18.573Z,0.50
2023-03-06T15:49:50.556Z,0.70
2023-03-06T15:52:21.841Z,0.43
2023-03-06T15:54:51.954Z,0.40
2023-03-06T15:57:32.746Z,0.50
2023-03-06T16:00:03.484Z,0.50
2023-03-06T16:02:33.361Z,0.50
2023-03-06T16:05:04.137Z,0.40
2023-03-06T16:07:33.822Z,0.40
2023-03-06T16:10:05.112Z,0.82
2023-03-06T16:12:36.142Z,0.30
2023-03-06T16:15:07.722Z,0.50
2023-03-06T16:17:37.316Z,0.77
2023-03-06T16:20:07.783Z,0.60
2023-03-06T16:22:37.380Z,0.50
2023-03-06T16:25:07.407Z,0.40
2023-03-06T16:27:37.269Z,0.38
2023-03-06T16:30:07.885Z,0.45
2023-03-06T16:32:37.609Z,0.40
2023-03-06T16:35:07.432Z,0.50
2023-03-06T16:37:36.974Z,0.60
2023-03-06T16:40:10.975Z,0.40
2023-03-06T16:42:40.590Z,0.40
2023-03-06T16:45:10.866Z,0.50
2023-03-06T16:47:40.670Z,0.45
2023-03-06T16:50:25.599Z,0.40
2023-03-06T16:52:56.924Z,0.50
2023-03-06T16:55:28.565Z,0.50
2023-03-06T16:57:59.323Z,0.45
2023-03-06T17:00:34.682Z,0.60
2023-03-06T17:03:04.987Z,0.68
2023-03-06T17:05:38.975Z,0.40
2023-03-06T17:08:08.624Z,0.50
2023-03-06T17:10:40.961Z,0.52
2023-03-06T17:13:12.210Z,0.50
2023-03-06T17:15:42.299Z,0.40
2023-03-06T17:18:11.939Z,0.65
2023-03-06T17:20:42.236Z,0.57
2023-03-06T17:23:12.008Z,0.40
2023-03-06T17:25:41.571Z,0.57
2023-03-06T17:28:12.278Z,0.38
2023-03-06T17:30:42.258Z,0.35
2023-03-06T17:33:11.863Z,0.57
2023-03-06T17:35:41.607Z,0.60
2023-03-06T17:38:11.173Z,0.30
2023-03-06T17:40:40.817Z,0.60
2023-03-06T17:43:10.499Z,0.40
2023-03-06T17:45:40.063Z,0.40
2023-03-06T17:48:09.782Z,0.55
2023-03-06T17:50:39.435Z,0.50
2023-03-06T17:53:09.052Z,0.40
2023-03-06T17:55:42.085Z,0.50
2023-03-06T17:58:12.449Z,0.30
2023-03-06T18:00:43.288Z,0.30
2023-03-06T18:03:12.954Z,0.43
2023-03-06T18:05:42.623Z,0.47
2023-03-06T18:08:12.341Z,0.45
2023-03-06T18:10:43.738Z,0.68
2023-03-06T18:13:13.528Z,0.50
2023-03-06T18:15:45.605Z,0.50
2023-03-06T18:18:15.801Z,0.30
2023-03-06T18:20:47.219Z,0.60
2023-03-06T18:23:20.051Z,0.60
2023-03-06T18:25:51.843Z,0.47
2023-03-06T18:28:21.709Z,0.50
2023-03-06T18:30:53.366Z,0.73
2023-03-06T18:33:25.281Z,0.40
2023-03-06T18:36:00.041Z,0.40
2023-03-06T18:38:32.029Z,0.50
2023-03-06T18:41:02.834Z,0.38
2023-03-06T18:43:36.122Z,0.55
2023-03-06T18:48:36.658Z,0.30
2023-03-06T18:51:13.252Z,0.40
2023-03-06T18:53:45.944Z,0.50
2023-03-06T18:56:22.544Z,0.65
2023-03-06T18:58:53.219Z,0.50
2023-03-06T19:01:24.825Z,0.40
2023-03-06T19:03:54.996Z,0.40
2023-03-06T19:06:27.571Z,0.60
2023-03-06T19:09:04.059Z,0.40
2023-03-06T19:11:37.208Z,0.40
2023-03-06T19:14:09.631Z,0.40
2023-03-06T19:16:42.763Z,0.55
2023-03-06T19:19:14.118Z,0.47
2023-03-06T19:21:44.842Z,0.32
2023-03-06T19:24:15.687Z,0.50
2023-03-06T19:26:45.973Z,0.50
2023-03-06T19:29:17.194Z,0.40
2023-03-06T19:31:48.211Z,0.55
2023-03-06T19:34:19.742Z,0.45
2023-03-06T19:36:52.789Z,0.47
2023-03-06T19:39:22.780Z,0.50
2023-03-06T19:41:52.680Z,0.40
2023-03-06T19:44:26.431Z,0.40
2023-03-06T19:47:01.540Z,0.30
2023-03-06T19:49:32.212Z,0.60
2023-03-06T19:52:01.935Z,0.40
2023-03-06T19:54:32.741Z,0.50
2023-03-06T19:57:04.406Z,0.50
2023-03-06T19:59:34.688Z,0.30
2023-03-06T20:02:10.935Z,0.40
2023-03-06T20:04:43.716Z,0.38
2023-03-06T20:07:14.381Z,0.43
2023-03-06T20:09:46.285Z,0.50
2023-03-06T20:12:19.626Z,0.50
2023-03-06T20:14:49.896Z,0.55
2023-03-06T20:17:21.165Z,0.40
2023-03-06T20:19:53.034Z,0.50
2023-03-06T20:22:26.268Z,0.70
2023-03-06T20:25:00.764Z,0.57
2023-03-06T20:27:31.870Z,0.63
2023-03-06T20:30:02.132Z,0.70
2023-03-06T20:32:35.709Z,1.80
2023-03-06T20:35:07.361Z,1.23
2023-03-06T20:37:39.667Z,1.20
2023-03-06T20:40:10.549Z,1.08
2023-03-06T20:42:41.103Z,1.02
2023-03-06T20:45:22.858Z,1.08
2023-03-06T20:47:53.034Z,1.10
2023-03-06T20:50:23.854Z,0.93
2023-03-06T20:53:00.519Z,1.17
2023-03-06T20:55:31.804Z,0.60
2023-03-06T20:58:02.775Z,0.82
2023-03-06T21:00:33.308Z,0.68
2023-03-06T21:03:05.841Z,0.70
2023-03-06T21:05:36.253Z,0.75
2023-03-06T21:08:06.029Z,0.70
2023-03-06T21:10:35.821Z,0.70
2023-03-06T21:13:05.395Z,0.65
2023-03-06T21:15:35.012Z,0.50
2023-03-06T21:18:06.726Z,0.55
2023-03-06T21:20:39.561Z,0.70
2023-03-06T21:23:10.036Z,0.60
2023-03-06T21:25:48.110Z,0.50
2023-03-06T21:28:18.194Z,0.45
2023-03-06T21:30:49.647Z,0.65
2023-03-06T21:33:19.356Z,0.57
2023-03-06T21:35:49.936Z,0.32
2023-03-06T21:38:22.495Z,0.52
2023-03-06T21:40:52.209Z,0.30
2023-03-06T21:43:22.315Z,0.40
2023-03-06T21:45:54.231Z,0.73
2023-03-06T21:48:23.867Z,0.65
2023-03-06T21:50:53.454Z,0.60
2023-03-06T21:53:23.058Z,0.30
2023-03-06T21:55:56.338Z,0.50
2023-03-06T22:00:55.899Z,0.30
2023-03-06T22:03:26.278Z,0.32
2023-03-06T22:05:56.100Z,0.50
2023-03-06T22:08:29.669Z,0.50
2023-03-06T22:10:59.574Z,0.40
2023-03-06T22:13:29.780Z,0.38
2023-03-06T22:16:00.788Z,0.43
2023-03-06T22:18:30.562Z,0.40
2023-03-06T22:21:00.818Z,0.50
2023-03-06T22:23:30.464Z,0.50
2023-03-06T22:26:05.219Z,0.50
2023-03-06T22:28:35.582Z,0.50
2023-03-06T22:31:13.240Z,0.40
2023-03-06T22:33:45.300Z,0.30
2023-03-06T22:36:17.896Z,0.30
2023-03-06T22:38:50.293Z,0.40
2023-03-06T22:41:21.948Z,0.50
2023-03-06T22:43:51.783Z,0.30
2023-03-06T22:46:21.407Z,0.30
2023-03-06T22:48:51.171Z,0.40
2023-03-06T22:51:22.824Z,0.50
2023-03-06T22:53:57.221Z,0.50
2023-03-06T22:56:27.408Z,0.57
2023-03-06T22:58:57.184Z,0.40
2023-03-06T23:01:30.601Z,0.47
2023-03-06T23:04:03.098Z,0.40
2023-03-06T23:06:38.993Z,0.43
2023-03-06T23:09:16.310Z,0.50
2023-03-06T23:11:46.385Z,0.50
2023-03-06T23:14:18.891Z,0.60
2023-03-06T23:16:48.908Z,0.67
2023-03-06T23:19:18.867Z,0.68
2023-03-06T23:21:48.511Z,0.90
2023-03-06T23:24:19.938Z,0.70
2023-03-06T23:26:49.563Z,0.60
2023-03-06T23:29:19.183Z,0.80
2023-03-06T23:31:50.285Z,1.23
2023-03-06T23:34:21.340Z,0.95
2023-03-06T23:36:51.094Z,0.88
2023-03-06T23:39:20.654Z,1.00
2023-03-06T23:41:50.211Z,0.88
2023-03-06T23:44:20.276Z,1.00
2023-03-06T23:46:49.857Z,1.13
2023-03-06T23:49:22.042Z,0.80
2023-03-06T23:51:51.924Z,1.08
2023-03-06T23:54:22.079Z,1.05
2023-03-06T23:56:51.803Z,1.27
2023-03-06T23:59:24.579Z,1.00
